createdAt,value
2022-12-01T00:03:35.008Z,5.57
2022-12-01T00:07:37.715Z,3.13
2022-12-01T00:11:40.376Z,4.00
2022-12-01T00:15:43.018Z,5.45
2022-12-01T00:19:47.310Z,4.63
2022-12-01T00:23:52.478Z,5.30
2022-12-01T00:27:55.473Z,6.10
2022-12-01T00:31:58.713Z,3.55
2022-12-01T00:36:03.444Z,4.03
2022-12-01T00:40:08.066Z,6.32
2022-12-01T00:44:10.857Z,3.35
2022-12-01T00:48:13.634Z,3.72
2022-12-01T00:52:18.153Z,3.13
2022-12-01T00:56:21.330Z,5.45
2022-12-01T01:00:23.986Z,5.97
2022-12-01T01:04:26.677Z,5.35
2022-12-01T01:08:30.721Z,4.18
2022-12-01T01:12:33.396Z,4.93
2022-12-01T01:16:36.288Z,5.13
2022-12-01T01:20:39.027Z,5.10
2022-12-01T01:24:43.014Z,5.68
2022-12-01T01:28:46.010Z,4.50
2022-12-01T01:32:48.680Z,4.00
2022-12-01T01:36:51.447Z,4.30
2022-12-01T01:40:55.821Z,5.38
2022-12-01T01:44:59.978Z,2.92
2022-12-01T01:49:07.941Z,3.65
2022-12-01T01:53:15.385Z,4.50
2022-12-01T01:57:24.873Z,4.53
2022-12-01T02:01:27.630Z,4.88
2022-12-01T02:05:33.390Z,5.03
2022-12-01T02:09:36.624Z,4.10
2022-12-01T02:13:51.293Z,5.05
2022-12-01T02:18:07.239Z,3.05
2022-12-01T02:22:24.791Z,3.90
2022-12-01T02:26:40.394Z,2.75
2022-12-01T02:30:48.790Z,3.90
2022-12-01T02:34:58.718Z,3.70
2022-12-01T02:39:08.843Z,4.65
2022-12-01T02:43:17.231Z,2.25
2022-12-01T02:47:21.855Z,4.97
2022-12-01T02:51:29.089Z,5.47
2022-12-01T02:55:31.796Z,3.88
2022-12-01T02:59:34.433Z,2.80
2022-12-01T03:03:58.528Z,3.58
2022-12-01T03:08:07.420Z,2.67
2022-12-01T03:12:20.917Z,5.05
2022-12-01T03:16:32.832Z,4.68
2022-12-01T03:20:41.399Z,3.53
2022-12-01T03:24:48.393Z,4.28
2022-12-01T03:28:55.999Z,3.58
2022-12-01T03:33:05.021Z,3.55
2022-12-01T03:37:14.645Z,4.80
2022-12-01T03:41:21.130Z,5.18
2022-12-01T03:45:31.425Z,2.45
2022-12-01T03:49:35.213Z,5.15
2022-12-01T03:53:49.874Z,4.78
2022-12-01T03:57:57.497Z,3.28
2022-12-01T04:02:00.255Z,4.50
2022-12-01T04:06:03.086Z,2.20
2022-12-01T04:10:08.961Z,3.63
2022-12-01T04:14:11.662Z,3.40
2022-12-01T04:18:14.392Z,4.18
2022-12-01T04:22:17.098Z,3.50
2022-12-01T04:26:21.177Z,3.60
2022-12-01T04:30:23.892Z,2.47
2022-12-01T04:34:26.552Z,4.95
2022-12-01T04:38:30.985Z,4.63
2022-12-01T04:42:35.193Z,4.07
2022-12-01T04:46:37.976Z,3.08
2022-12-01T04:50:42.044Z,4.95
2022-12-01T04:54:44.751Z,4.25
2022-12-01T04:58:48.989Z,6.72
2022-12-01T05:02:51.718Z,4.47
2022-12-01T05:06:55.594Z,3.63
2022-12-01T05:10:58.900Z,4.45
2022-12-01T05:15:03.022Z,2.15
2022-12-01T05:19:24.351Z,3.38
2022-12-01T05:23:28.659Z,4.00
2022-12-01T05:27:31.374Z,3.55
2022-12-01T05:31:35.793Z,5.05
2022-12-01T05:35:38.516Z,3.10
2022-12-01T05:39:41.257Z,5.32
2022-12-01T05:43:43.991Z,2.85
2022-12-01T05:47:48.662Z,5.25
2022-12-01T05:51:51.539Z,4.10
2022-12-01T05:55:54.820Z,2.78
2022-12-01T05:59:57.532Z,5.28
2022-12-01T06:04:01.583Z,4.13
2022-12-01T06:08:04.359Z,3.20
2022-12-01T06:12:07.368Z,3.97
2022-12-01T06:16:10.148Z,4.25
2022-12-01T06:20:14.727Z,4.32
2022-12-01T06:24:17.427Z,5.13
2022-12-01T06:28:20.253Z,4.28
2022-12-01T06:32:22.929Z,4.07
2022-12-01T06:36:27.007Z,2.63
2022-12-01T06:40:29.712Z,3.13
2022-12-01T06:44:33.205Z,6.25
2022-12-01T06:48:36.042Z,3.60
2022-12-01T06:52:40.069Z,5.07
2022-12-01T06:56:43.217Z,4.47
2022-12-01T07:00:51.743Z,5.63
2022-12-01T07:04:54.913Z,3.20
2022-12-01T07:08:59.143Z,4.25
2022-12-01T07:13:01.880Z,4.18
2022-12-01T07:17:05.252Z,5.25
2022-12-01T07:21:12.660Z,4.53
2022-12-01T07:25:16.913Z,4.07
2022-12-01T07:29:19.747Z,5.25
2022-12-01T07:33:23.164Z,3.45
2022-12-01T07:37:26.142Z,3.55
2022-12-01T07:41:30.141Z,5.18
2022-12-01T07:45:32.786Z,4.35
2022-12-01T07:49:35.541Z,4.70
2022-12-01T07:53:39.254Z,4.03
2022-12-01T07:57:43.321Z,6.03
2022-12-01T08:01:46.350Z,4.57
2022-12-01T08:05:58.060Z,5.47
2022-12-01T08:10:00.785Z,4.40
2022-12-01T08:14:04.829Z,2.97
2022-12-01T08:18:08.149Z,4.93
2022-12-01T08:22:10.805Z,3.70
2022-12-01T08:26:16.140Z,4.90
2022-12-01T08:30:20.229Z,4.93
2022-12-01T08:34:22.926Z,3.97
2022-12-01T08:38:25.610Z,4.93
2022-12-01T08:42:28.400Z,6.20
2022-12-01T08:46:35.760Z,10.10
2022-12-01T08:50:38.577Z,4.97
2022-12-01T08:54:41.290Z,4.82
2022-12-01T08:58:43.997Z,5.53
2022-12-01T09:02:48.247Z,6.18
2022-12-01T09:06:52.714Z,5.47
2022-12-01T09:10:55.329Z,4.10
2022-12-01T09:14:58.063Z,5.13
2022-12-01T09:19:02.742Z,5.07
2022-12-01T09:23:05.363Z,5.05
2022-12-01T09:27:08.184Z,6.88
2022-12-01T09:31:13.320Z,5.80
2022-12-01T09:35:23.046Z,6.70
2022-12-01T09:39:26.453Z,5.97
2022-12-01T09:43:35.251Z,7.38
2022-12-01T09:47:40.069Z,6.82
2022-12-01T09:51:44.275Z,6.90
2022-12-01T09:55:47.438Z,5.18
2022-12-01T09:59:52.853Z,6.63
2022-12-01T10:03:58.953Z,5.38
2022-12-01T10:08:06.553Z,6.20
2022-12-01T10:12:15.137Z,6.30
2022-12-01T10:16:26.460Z,6.10
2022-12-01T10:20:37.050Z,6.40
2022-12-01T10:24:55.073Z,5.75
2022-12-01T10:29:12.983Z,6.00
2022-12-01T10:33:25.119Z,6.78
2022-12-01T10:37:31.069Z,7.28
2022-12-01T10:41:38.711Z,5.75
2022-12-01T10:45:44.999Z,7.20
2022-12-01T10:49:48.024Z,5.80
2022-12-01T10:53:52.352Z,8.02
2022-12-01T10:58:04.719Z,7.43
2022-12-01T11:02:17.296Z,5.70
2022-12-01T11:06:23.811Z,5.25
2022-12-01T11:10:28.690Z,5.95
2022-12-01T11:14:42.256Z,6.38
2022-12-01T11:18:45.010Z,6.57
2022-12-01T11:22:47.672Z,7.13
2022-12-01T11:26:50.397Z,7.38
2022-12-01T11:30:58.543Z,5.10
2022-12-01T11:35:04.504Z,6.57
2022-12-01T11:39:07.225Z,7.40
2022-12-01T11:43:25.675Z,6.93
2022-12-01T11:47:29.995Z,6.95
2022-12-01T11:51:37.452Z,7.22
2022-12-01T11:55:40.282Z,6.72
2022-12-01T11:59:42.937Z,5.57
2022-12-01T12:03:58.836Z,8.30
2022-12-01T12:08:10.987Z,6.60
2022-12-01T12:12:26.258Z,5.97
2022-12-01T12:16:39.029Z,9.30
2022-12-01T12:20:58.022Z,7.22
2022-12-01T12:25:20.814Z,10.05
2022-12-01T12:29:42.590Z,9.85
2022-12-01T12:34:05.735Z,7.90
2022-12-01T12:38:17.520Z,8.00
2022-12-01T12:42:32.567Z,7.60
2022-12-01T12:46:46.852Z,5.75
2022-12-01T12:50:57.505Z,7.82
2022-12-01T12:55:04.939Z,6.57
2022-12-01T12:59:13.024Z,6.72
2022-12-01T13:03:22.216Z,6.93
2022-12-01T13:07:35.557Z,6.65
2022-12-01T13:11:45.398Z,5.30
2022-12-01T13:15:50.177Z,7.03
2022-12-01T13:19:52.922Z,6.72
2022-12-01T13:23:55.837Z,6.93
2022-12-01T13:28:04.000Z,6.70
2022-12-01T13:32:08.423Z,6.10
2022-12-01T13:36:45.336Z,6.88
2022-12-01T13:40:36.790Z,5.13
2022-12-01T13:44:43.066Z,6.72
2022-12-01T13:48:53.678Z,7.65
2022-12-01T13:53:12.150Z,6.70
2022-12-01T13:57:26.779Z,6.03
2022-12-01T14:01:49.033Z,7.13
2022-12-01T14:05:57.107Z,5.97
2022-12-01T14:10:30.090Z,5.47
2022-12-01T14:14:38.462Z,7.97
2022-12-01T14:18:45.233Z,6.95
2022-12-01T14:22:50.953Z,5.75
2022-12-01T14:26:54.015Z,6.32
2022-12-01T14:31:03.864Z,6.88
2022-12-01T14:35:14.895Z,7.07
2022-12-01T14:39:21.717Z,6.68
2022-12-01T14:43:44.473Z,4.65
2022-12-01T14:47:53.690Z,4.47
2022-12-01T14:52:05.414Z,5.20
2022-12-01T14:56:12.305Z,6.70
2022-12-01T15:00:17.949Z,6.57
2022-12-01T15:04:20.919Z,5.88
2022-12-01T15:08:53.194Z,5.70
2022-12-01T15:12:51.962Z,4.63
2022-12-01T15:16:54.757Z,4.55
2022-12-01T17:26:21.852Z,1.42
2022-12-01T17:30:25.279Z,1.67
2022-12-01T17:34:28.308Z,2.08
2022-12-01T17:38:31.154Z,0.80
2022-12-01T17:42:35.540Z,0.52
2022-12-01T17:46:38.476Z,2.58
2022-12-01T17:50:41.628Z,1.42
2022-12-01T17:54:44.426Z,1.90
2022-12-01T17:58:50.547Z,3.05
2022-12-01T18:02:53.463Z,2.08
2022-12-01T18:06:56.269Z,2.72
2022-12-01T18:11:02.153Z,2.17
2022-12-01T18:15:08.166Z,1.98
2022-12-01T18:19:11.654Z,2.15
2022-12-01T18:23:14.407Z,3.42
2022-12-01T18:27:17.218Z,2.03
2022-12-01T18:31:21.659Z,2.83
2022-12-01T18:35:28.822Z,2.05
2022-12-01T18:39:34.904Z,2.25
2022-12-01T18:43:38.196Z,2.97
2022-12-01T18:47:42.354Z,1.88
2022-12-01T18:51:45.059Z,3.47
2022-12-01T18:55:47.733Z,2.10
2022-12-01T18:59:51.094Z,3.13
2022-12-01T19:03:57.792Z,1.90
2022-12-01T19:08:00.728Z,3.42
2022-12-01T19:12:03.458Z,7.18
2022-12-01T19:16:07.771Z,9.10
2022-12-01T19:20:13.396Z,6.60
2022-12-01T19:24:16.483Z,8.05
2022-12-01T19:28:19.225Z,7.75
2022-12-01T19:32:22.247Z,5.32
2022-12-01T19:36:28.292Z,6.60
2022-12-01T19:40:30.989Z,6.35
2022-12-01T19:44:33.704Z,5.60
2022-12-01T19:48:36.866Z,4.72
2022-12-01T19:52:41.736Z,6.70
2022-12-01T19:56:45.005Z,5.13
2022-12-01T20:00:47.995Z,5.30
2022-12-01T20:04:51.153Z,4.82
2022-12-01T20:08:56.635Z,4.47
2022-12-01T20:12:59.322Z,6.72
2022-12-01T20:17:02.305Z,5.55
2022-12-01T20:21:07.450Z,5.75
2022-12-01T20:25:11.620Z,5.00
2022-12-01T20:29:17.007Z,5.78
2022-12-01T20:33:19.697Z,5.03
2022-12-01T20:37:22.605Z,4.70
2022-12-01T20:41:26.645Z,3.75
2022-12-01T20:45:29.550Z,5.53
2022-12-01T20:49:32.970Z,5.55
2022-12-01T20:53:36.675Z,3.85
2022-12-01T20:57:40.743Z,6.10
2022-12-01T21:01:43.723Z,5.82
2022-12-01T21:05:46.418Z,5.20
2022-12-01T21:09:49.344Z,4.47
2022-12-01T21:13:54.031Z,4.65
2022-12-01T21:18:00.137Z,5.50
2022-12-01T21:22:03.021Z,4.80
2022-12-01T21:26:10.612Z,5.28
2022-12-01T21:30:21.957Z,4.82
2022-12-01T21:34:25.966Z,5.55
2022-12-01T21:38:28.985Z,5.50
2022-12-01T21:42:32.809Z,5.38
2022-12-01T21:46:39.716Z,3.33
2022-12-01T21:50:42.550Z,5.70
2022-12-01T21:54:45.397Z,5.28
2022-12-01T21:58:48.940Z,4.28
2022-12-01T22:02:59.502Z,5.28
2022-12-01T22:07:03.343Z,4.75
2022-12-01T22:11:11.671Z,5.60
2022-12-01T22:15:40.838Z,4.28
2022-12-01T22:19:47.885Z,6.32
2022-12-01T22:23:52.810Z,5.25
2022-12-01T22:27:58.170Z,6.10
2022-12-01T22:32:27.616Z,5.47
2022-12-01T22:36:33.343Z,5.45
2022-12-01T22:40:39.546Z,3.92
2022-12-01T22:44:44.968Z,6.07
2022-12-01T22:48:50.067Z,6.10
2022-12-01T22:52:55.037Z,5.90
2022-12-01T22:57:25.485Z,5.13
2022-12-01T23:01:30.363Z,5.68
2022-12-01T23:05:33.065Z,7.10
2022-12-01T23:09:42.899Z,5.63
2022-12-01T23:13:45.644Z,6.03
2022-12-01T23:17:48.787Z,5.28
2022-12-01T23:21:53.538Z,6.80
2022-12-01T23:25:57.865Z,7.10
2022-12-01T23:30:00.533Z,7.13
2022-12-01T23:34:03.156Z,7.50
2022-12-01T23:38:06.829Z,7.38
2022-12-01T23:42:13.784Z,7.03
2022-12-01T23:46:19.407Z,6.55
2022-12-01T23:50:24.369Z,8.68
2022-12-01T23:54:30.188Z,9.10
2022-12-01T23:58:35.121Z,5.35
